Norfolk, NE (68701)

12:25 CDT le 16 septembre 2014 (GMT -0500)
West Central - Norfolk | Change Station
CLOSE
Current Station
Stations météorologiques personnelles
Location: Norfolk, NE
Altitude: 1640 ft
Stations météo à proximité

Alt. 1640 ft 42.04 °N, 97.45 °W | Updated 5 minutes ago

Ciel dégagé
Ciel dégagé
63.5 ° F
Paraît 63.5 ° F
N
1.0
Vent Variable Vent de Nord
Gusts 10.0 mph

Aujourd'hui
Haut(e) -- | Bas -- ° F
--% Risque de précip.
Hier
Haut(e) -- | Bas -- ° F
Precip. -- pouce
7:10 AM 7:37 PM
Dernier quartier, 44% visible
Pression 30.16 pouce
Visibilité 10.0 Miles terrestres
Nuages Ciel dégagé
Point de rosée 49 ° F
Humidité 59%
Précipitations 0.00 pouce
Profondeur de la couche neigeuse Non disponible.
UV 7 sur 12
Pollen 6.30 sur 12
Qualité de l'air Non disponible.
Flu Activity Non disponible.
METAR KOFK 161656Z AUTO 20011KT 10SM CLR 17/08 A3015 RMK AO2 SLP211 T01670083

More Conditions Fewer Conditions

Pression 30.16 pouce
Visibilité 10.0 Miles terrestres
Nuages Ciel dégagé
Point de rosée 49 ° F
Humidité 59%
Précipitations 0.00 pouce
Profondeur de la couche neigeuse Non disponible.
UV 7 sur 12
Pollen 6.30 sur 12
Qualité de l'air Non disponible.
Flu Activity Non disponible.
METAR KOFK 161656Z AUTO 20011KT 10SM CLR 17/08 A3015 RMK AO2 SLP211 T01670083

More Conditions Fewer Conditions

10-Day Weather Forecast

Almanac

Astronomie

Sep. 16, 2014 Lever Coucher
Temps réel 07:10 CDT 19:37 CDT
Crépuscule civil 06:42 CDT 20:05 CDT
Crépuscule nautique 06:09 CDT 20:38 CDT
Crépuscule astronomique 05:35 CDT 21:12 CDT
Lune 00:17 CDT 15:06 CDT
Durée de lumière visible 13h 22m
Longueur du jour
12h 26m
Tomorrow will be 2m 48s shorter.
Dernier quartier, 44% of the Moon is Illuminated
Aujourd'hui
Dernier quartier
Sep 24
Nouveau
Oct 1
Premier quartier
Oct 8
Pleine lune
Oct 15
Dernier quartier

Extrêmes aujourd'hui

State Highs State Lows

Community

WunderPhotos

Upload Photos

1,753,838 Photos téléchargées !

Nearby

Épaisseur de neige

Station Depth Altitude
Pas de nouvelles chutes de neige

Activité sismique

Ville Distance Mag. Time & Date
No recent earthquake activity has been reported nearby.
Minimum magnitude displayed is 2.5.

Températures des eaux côtières

Lieu Température
Aucun rapport de station

Stations météo à proximité